createdAt,value
2019-05-26T00:02:21.395Z,6.67
2019-05-26T00:06:24.484Z,7.40
2019-05-26T00:10:29.569Z,7.77
2019-05-26T00:14:32.668Z,7.73
2019-05-26T00:18:35.736Z,7.83
2019-05-26T00:22:38.813Z,6.90
2019-05-26T00:26:41.871Z,7.33
2019-05-26T00:30:44.928Z,6.77
2019-05-26T00:34:48.036Z,6.07
2019-05-26T00:38:51.078Z,7.70
2019-05-26T00:42:54.237Z,6.67
2019-05-26T00:46:57.341Z,7.60
2019-05-26T00:51:00.437Z,7.00
2019-05-26T00:55:07.460Z,6.77
2019-05-26T00:59:10.849Z,8.23
2019-05-26T01:03:13.952Z,7.40
2019-05-26T01:07:17.059Z,7.00
2019-05-26T01:11:20.970Z,7.47
2019-05-26T01:15:24.195Z,7.77
2019-05-26T01:19:27.317Z,8.63
2019-05-26T01:23:30.381Z,8.23
2019-05-26T01:27:33.688Z,7.77
2019-05-26T01:31:36.789Z,8.43
2019-05-26T01:35:40.250Z,8.67
2019-05-26T01:39:43.336Z,8.10
2019-05-26T01:43:46.431Z,7.83
2019-05-26T01:47:49.575Z,8.80
2019-05-26T01:51:52.759Z,7.80
2019-05-26T01:55:55.951Z,7.67
2019-05-26T01:59:59.070Z,8.57
2019-05-26T02:04:02.069Z,7.90
2019-05-26T02:08:05.394Z,9.07
2019-05-26T02:12:10.121Z,8.73
2019-05-26T02:16:13.148Z,7.93
2019-05-26T02:20:16.481Z,9.00
2019-05-26T02:24:19.486Z,8.23
2019-05-26T02:28:22.494Z,8.47
2019-05-26T02:32:25.514Z,9.10
2019-05-26T02:36:28.528Z,8.77
2019-05-26T02:40:31.584Z,8.00
2019-05-26T02:44:34.681Z,8.33
2019-05-26T02:48:37.693Z,8.03
2019-05-26T02:52:40.700Z,8.20
2019-05-26T02:56:43.929Z,8.40
2019-05-26T03:00:47.041Z,8.50
2019-05-26T03:04:50.086Z,7.57
2019-05-26T03:08:56.953Z,10.70
2019-05-26T03:13:03.716Z,8.93
2019-05-26T03:17:06.711Z,8.00
2019-05-26T03:21:11.044Z,8.67
2019-05-26T03:25:14.146Z,8.87
2019-05-26T03:29:17.178Z,8.30
2019-05-26T03:33:20.257Z,9.00
2019-05-26T03:37:23.261Z,8.10
2019-05-26T03:41:26.262Z,9.33
2019-05-26T03:45:33.165Z,8.13
2019-05-26T03:49:36.168Z,9.50
2019-05-26T03:53:39.202Z,9.30
2019-05-26T03:57:42.252Z,7.93
2019-05-26T04:01:45.244Z,8.40
2019-05-26T04:05:48.271Z,8.17
2019-05-26T04:10:04.116Z,9.17
2019-05-26T04:13:57.393Z,7.20
2019-05-26T04:18:00.390Z,7.60
2019-05-26T04:22:03.438Z,8.17
2019-05-26T04:26:06.465Z,8.17
2019-05-26T04:30:10.024Z,8.07
2019-05-26T04:34:13.040Z,9.53
2019-05-26T04:38:16.061Z,8.50
2019-05-26T04:42:19.081Z,8.50
2019-05-26T04:46:22.339Z,9.67
2019-05-26T04:51:24.448Z,8.30
2019-05-26T04:55:27.460Z,8.97
2019-05-26T04:59:30.498Z,7.37
2019-05-26T05:03:33.502Z,8.70
2019-05-26T05:07:36.507Z,8.50
2019-05-26T05:11:39.517Z,9.23
2019-05-26T05:15:42.533Z,7.37
2019-05-26T05:19:45.628Z,9.00
2019-05-26T05:23:47.031Z,8.50
2019-05-26T05:27:48.038Z,9.70
2019-05-26T05:31:51.050Z,8.00
2019-05-26T05:35:54.057Z,7.97
2019-05-26T05:39:57.064Z,7.93
2019-05-26T05:44:00.079Z,9.33
2019-05-26T05:48:03.181Z,10.53
2019-05-26T05:52:06.536Z,9.40
2019-05-26T05:56:09.608Z,10.47
2019-05-26T06:00:14.721Z,9.17
2019-05-26T06:04:17.735Z,7.97
2019-05-26T06:08:20.750Z,8.37
2019-05-26T06:12:23.776Z,8.97
2019-05-26T06:16:26.791Z,8.10
2019-05-26T06:20:29.796Z,8.40
2019-05-26T06:24:32.816Z,8.43
2019-05-26T06:28:35.826Z,7.57
2019-05-26T06:32:38.823Z,7.60
2019-05-26T06:36:41.848Z,8.10
2019-05-26T06:40:44.869Z,8.53
2019-05-26T06:44:53.590Z,9.63
2019-05-26T06:48:58.205Z,10.47
2019-05-26T06:53:01.657Z,10.57
2019-05-26T06:57:04.718Z,10.53
2019-05-26T07:01:07.816Z,12.77
2019-05-26T07:05:11.205Z,14.03
2019-05-26T07:09:14.213Z,15.30
2019-05-26T07:13:17.223Z,14.47
2019-05-26T07:17:20.756Z,15.83
2019-05-26T07:21:24.066Z,14.47
2019-05-26T07:25:27.152Z,15.33
2019-05-26T07:29:30.206Z,13.23
2019-05-26T07:33:33.232Z,13.77
2019-05-26T07:37:36.315Z,13.83
2019-05-26T07:41:39.337Z,18.33
2019-05-26T07:45:42.375Z,12.47
2019-05-26T07:49:45.397Z,12.80
2019-05-26T07:53:49.628Z,12.63
2019-05-26T07:57:52.706Z,13.43
2019-05-26T08:01:55.719Z,17.13
2019-05-26T08:05:58.743Z,14.20
2019-05-26T08:10:04.337Z,18.70
2019-05-26T08:14:07.425Z,13.93
2019-05-26T08:18:10.449Z,15.00
2019-05-26T08:22:13.515Z,12.90
2019-05-26T08:26:16.513Z,12.80
2019-05-26T08:30:19.737Z,13.23
2019-05-26T08:34:22.821Z,15.00
2019-05-26T08:38:25.851Z,17.97
2019-05-26T08:42:42.073Z,16.33
2019-05-26T08:46:33.776Z,14.50
2019-05-26T08:50:36.784Z,13.57
2019-05-26T08:54:40.194Z,12.70
2019-05-26T08:58:43.204Z,12.27
2019-05-26T09:02:46.348Z,12.20
2019-05-26T09:06:49.361Z,10.43
2019-05-26T09:10:52.432Z,11.70
2019-05-26T09:14:55.557Z,9.90
2019-05-26T09:18:58.543Z,12.40
2019-05-26T09:23:01.557Z,12.10
2019-05-26T09:27:04.572Z,11.10
2019-05-26T09:31:07.594Z,10.87
2019-05-26T09:35:11.818Z,10.80
2019-05-26T09:39:14.844Z,11.60
2019-05-26T09:43:17.858Z,12.20
2019-05-26T09:47:20.872Z,9.80
2019-05-26T09:51:23.877Z,9.77
2019-05-26T09:55:27.761Z,9.93
2019-05-26T09:59:30.775Z,10.73
2019-05-26T10:03:33.806Z,9.47
2019-05-26T10:07:36.853Z,8.23
2019-05-26T10:11:39.885Z,9.93
2019-05-26T10:15:42.914Z,9.57
2019-05-26T10:19:45.922Z,8.93
2019-05-26T10:23:48.948Z,9.17
2019-05-26T10:27:51.956Z,7.80
2019-05-26T10:31:54.982Z,7.23
2019-05-26T10:35:58.031Z,5.93
2019-05-26T10:40:01.054Z,6.30
2019-05-26T10:44:04.065Z,6.60
2019-05-26T10:48:07.378Z,4.80
2019-05-26T10:52:10.396Z,5.77
2019-05-26T10:56:13.959Z,6.73
2019-05-26T11:00:17.569Z,5.53
2019-05-26T11:04:20.579Z,6.53
2019-05-26T11:08:23.652Z,4.93
2019-05-26T11:12:26.662Z,4.50
2019-05-26T11:16:29.839Z,5.93
2019-05-26T11:20:33.008Z,4.70
2019-05-26T11:24:36.073Z,3.90
2019-05-26T11:28:39.076Z,4.87
2019-05-26T11:32:42.112Z,4.33
2019-05-26T11:36:45.140Z,4.23
2019-05-26T11:40:48.210Z,3.70
2019-05-26T11:44:51.307Z,3.20
2019-05-26T11:48:54.319Z,2.90
2019-05-26T11:52:57.339Z,3.40
2019-05-26T11:57:02.374Z,4.50
2019-05-26T12:01:05.396Z,4.10
2019-05-26T12:05:09.309Z,3.23
2019-05-26T12:09:12.321Z,3.47
2019-05-26T12:13:15.351Z,4.10
2019-05-26T12:17:18.436Z,3.63
2019-05-26T12:21:21.452Z,2.90
2019-05-26T12:25:24.535Z,3.20
2019-05-26T12:29:27.550Z,2.80
2019-05-26T12:33:30.568Z,4.03
2019-05-26T12:37:33.617Z,3.40
2019-05-26T12:41:37.464Z,2.90
2019-05-26T12:45:40.756Z,2.70
2019-05-26T12:49:43.843Z,3.63
2019-05-26T12:53:47.014Z,4.13
2019-05-26T12:57:50.393Z,3.20
2019-05-26T13:01:53.491Z,3.60
2019-05-26T13:05:56.558Z,3.30
2019-05-26T13:09:59.781Z,4.40
2019-05-26T13:14:03.507Z,3.20
2019-05-26T13:18:06.562Z,4.67
2019-05-26T13:22:09.708Z,4.27
2019-05-26T13:26:12.767Z,8.73
2019-05-26T13:30:20.929Z,4.77
2019-05-26T13:34:24.110Z,5.27
2019-05-26T13:38:27.104Z,3.67
2019-05-26T13:42:30.138Z,3.93
2019-05-26T13:46:33.285Z,4.43
2019-05-26T13:50:36.290Z,4.30
2019-05-26T13:54:40.318Z,3.27
2019-05-26T13:58:45.008Z,3.60
2019-05-26T14:02:48.065Z,3.10
2019-05-26T14:06:51.071Z,2.50
2019-05-26T14:10:54.085Z,3.00
2019-05-26T14:14:57.095Z,2.50
2019-05-26T14:19:01.049Z,2.80
2019-05-26T14:23:05.791Z,2.93
2019-05-26T14:27:08.929Z,3.17
2019-05-26T14:31:12.125Z,3.00
2019-05-26T14:35:15.179Z,3.17
2019-05-26T14:39:18.200Z,2.80
2019-05-26T14:43:21.220Z,3.00
2019-05-26T14:47:24.298Z,3.40
2019-05-26T14:51:27.360Z,3.20
2019-05-26T14:55:30.490Z,3.70
2019-05-26T14:59:34.940Z,2.70
2019-05-26T15:03:37.989Z,3.10
2019-05-26T15:07:40.983Z,2.80
2019-05-26T15:11:44.028Z,3.07
2019-05-26T15:15:47.183Z,2.77
2019-05-26T15:19:50.220Z,2.20
2019-05-26T15:23:53.329Z,3.10
2019-05-26T15:27:56.375Z,3.03
2019-05-26T15:32:02.724Z,2.90
2019-05-26T15:36:04.469Z,2.20
2019-05-26T15:40:07.888Z,2.70
2019-05-26T15:44:10.877Z,2.50
2019-05-26T15:48:13.998Z,2.80
2019-05-26T15:52:17.004Z,3.00
2019-05-26T15:56:20.657Z,4.10
2019-05-26T16:00:25.139Z,2.80
2019-05-26T16:04:28.133Z,2.67
2019-05-26T16:08:31.140Z,3.00
2019-05-26T16:12:34.164Z,2.30
2019-05-26T16:16:41.326Z,2.40
2019-05-26T16:20:42.215Z,2.77
2019-05-26T16:24:45.328Z,2.50
2019-05-26T16:28:48.336Z,3.13
2019-05-26T16:32:51.350Z,2.50
2019-05-26T16:36:54.401Z,2.53
2019-05-26T16:40:57.480Z,3.10
2019-05-26T16:45:00.577Z,2.17
2019-05-26T16:49:03.816Z,2.30
2019-05-26T16:53:06.898Z,2.97
2019-05-26T16:57:10.016Z,2.57
2019-05-26T17:01:13.625Z,2.63
2019-05-26T17:05:16.654Z,2.70
2019-05-26T17:09:19.714Z,2.60
2019-05-26T17:13:22.905Z,2.43
2019-05-26T17:17:25.918Z,2.97
2019-05-26T17:21:29.024Z,2.57
2019-05-26T17:25:32.096Z,3.20
2019-05-26T17:29:35.202Z,3.17
2019-05-26T17:33:38.310Z,3.30
2019-05-26T17:37:41.325Z,3.30
2019-05-26T17:41:44.467Z,3.50
2019-05-26T17:45:47.610Z,3.30
2019-05-26T17:49:50.695Z,3.00
2019-05-26T17:53:53.712Z,3.63
2019-05-26T17:57:56.741Z,3.43
2019-05-26T18:01:59.969Z,3.47
2019-05-26T18:06:03.120Z,3.40
2019-05-26T18:10:07.005Z,3.67
2019-05-26T18:14:10.135Z,2.87
2019-05-26T18:18:13.146Z,3.20
2019-05-26T18:22:16.161Z,2.43
2019-05-26T18:26:19.483Z,3.10
2019-05-26T18:30:22.501Z,5.47
2019-05-26T18:34:25.521Z,2.90
2019-05-26T18:38:28.630Z,3.20
2019-05-26T18:42:31.657Z,3.23
2019-05-26T18:46:34.781Z,3.47
2019-05-26T18:50:37.821Z,3.30
2019-05-26T18:54:40.839Z,3.30
2019-05-26T18:58:43.851Z,3.00
2019-05-26T19:02:47.595Z,3.13
2019-05-26T19:06:50.634Z,3.13
2019-05-26T19:10:53.744Z,3.47
2019-05-26T19:14:56.802Z,2.87
2019-05-26T19:19:00.215Z,3.70
2019-05-26T19:23:03.506Z,2.83
2019-05-26T19:27:06.566Z,2.90
2019-05-26T19:31:09.641Z,2.70
2019-05-26T19:35:13.176Z,2.80
2019-05-26T19:39:16.259Z,2.90
2019-05-26T19:43:19.293Z,2.90
2019-05-26T19:47:22.353Z,2.43
2019-05-26T19:51:25.457Z,2.77
2019-05-26T19:55:28.572Z,3.10
2019-05-26T19:59:31.673Z,2.97
2019-05-26T20:03:35.948Z,3.30
2019-05-26T20:07:39.183Z,4.87
2019-05-26T20:11:42.247Z,3.20
2019-05-26T20:15:45.526Z,2.77
2019-05-26T20:19:48.531Z,3.20
2019-05-26T20:23:51.575Z,3.10
2019-05-26T20:27:54.588Z,3.90
2019-05-26T20:31:57.612Z,3.90
2019-05-26T20:36:00.623Z,3.90
2019-05-26T20:40:05.192Z,3.23
2019-05-26T20:44:08.225Z,3.20
2019-05-26T20:48:11.549Z,3.30
2019-05-26T20:52:14.570Z,3.47
2019-05-26T20:56:17.599Z,4.10
2019-05-26T21:00:20.615Z,3.70
2019-05-26T21:04:25.191Z,3.50
2019-05-26T21:08:28.208Z,3.47
2019-05-26T21:12:31.225Z,3.30
2019-05-26T21:16:34.270Z,3.50
2019-05-26T21:20:37.284Z,3.40
2019-05-26T21:24:40.293Z,3.27
2019-05-26T21:28:43.314Z,3.50
2019-05-26T21:32:46.330Z,3.20
2019-05-26T21:36:49.338Z,6.23
2019-05-26T21:40:52.434Z,4.13
2019-05-26T21:44:55.574Z,4.07
2019-05-26T21:48:58.592Z,3.50
2019-05-26T21:53:01.631Z,3.60
2019-05-26T21:57:04.977Z,3.73
2019-05-26T22:01:07.992Z,4.60
2019-05-26T22:05:12.327Z,3.20
2019-05-26T22:09:15.325Z,4.07
2019-05-26T22:13:18.429Z,3.50
2019-05-26T22:17:21.440Z,4.40
2019-05-26T22:21:24.441Z,4.33
2019-05-26T22:25:27.458Z,4.00
2019-05-26T22:29:30.463Z,4.10
2019-05-26T22:33:33.455Z,8.20
2019-05-26T22:37:36.469Z,7.13
2019-05-26T22:41:39.480Z,4.60
2019-05-26T22:45:42.555Z,4.77
2019-05-26T22:49:45.556Z,6.20
2019-05-26T22:53:48.562Z,4.30
2019-05-26T22:57:51.579Z,4.53
2019-05-26T23:01:54.596Z,4.50
2019-05-26T23:05:57.996Z,4.40
2019-05-26T23:10:02.862Z,3.73
2019-05-26T23:14:06.057Z,6.43
2019-05-26T23:18:09.085Z,4.00
2019-05-26T23:22:12.111Z,4.53
2019-05-26T23:26:15.114Z,4.30
2019-05-26T23:30:19.132Z,3.83
2019-05-26T23:34:22.140Z,3.70
2019-05-26T23:38:25.156Z,4.00
2019-05-26T23:42:28.170Z,3.80
2019-05-26T23:46:31.185Z,4.33
2019-05-26T23:50:34.199Z,3.70
2019-05-26T23:54:37.220Z,3.67
2019-05-26T23:58:40.227Z,6.60
